Time;durP1;ratioP1;P1;durP2;ratioP2;P2;SDS_P1;SDS_P2;PMS_P1;PMS_P2;Temp;Humidity;BMP_temperature;BMP_pressure;BME280_temperature;BME280_humidity;BME280_pressure;Samples;Min_cycle;Max_cycle;Signal;HPM_P1;HPM_P2
2022/10/12 00:00:05;;;;;;;15.40;8.73;;;6.60;88.60;;;;;;5094114;28;20103;-48
2022/10/12 00:02:31;;;;;;;17.50;8.38;;;6.50;88.70;;;;;;5093983;28;20380;-48
2022/10/12 00:04:56;;;;;;;17.90;7.45;;;6.50;88.70;;;;;;5093855;28;20044;-51
2022/10/12 00:07:22;;;;;;;22.98;8.73;;;6.50;88.60;;;;;;5094140;28;20051;-49
2022/10/12 00:09:48;;;;;;;17.70;8.88;;;6.40;88.70;;;;;;5094130;28;20507;-49
2022/10/12 00:12:13;;;;;;;16.95;8.18;;;6.40;88.80;;;;;;5094609;28;20338;-52
2022/10/12 00:14:39;;;;;;;13.85;7.38;;;6.40;89.00;;;;;;5094478;28;20483;-51
2022/10/12 00:17:05;;;;;;;12.63;7.32;;;6.40;89.00;;;;;;5094806;28;20024;-49
2022/10/12 00:19:30;;;;;;;11.55;6.90;;;6.40;89.10;;;;;;5094343;28;20506;-52
2022/10/12 00:21:56;;;;;;;17.58;6.95;;;6.40;89.10;;;;;;5094212;28;20111;-49
2022/10/12 00:24:22;;;;;;;16.75;6.22;;;6.40;89.20;;;;;;5094162;28;20040;-50
2022/10/12 00:26:49;;;;;;;12.65;6.50;;;6.40;89.40;;;;;;5094466;28;20443;-48
2022/10/12 00:29:15;;;;;;;18.90;6.65;;;6.40;89.30;;;;;;5094181;28;20016;-51
2022/10/12 00:31:40;;;;;;;16.13;7.10;;;6.40;89.40;;;;;;5094462;28;20024;-48
2022/10/12 00:34:06;;;;;;;13.43;6.75;;;6.30;89.40;;;;;;5094515;28;20023;-48
2022/10/12 00:36:34;;;;;;;16.17;6.78;;;6.40;89.40;;;;;;5094924;28;20488;-50
2022/10/12 00:39:02;;;;;;;17.48;8.05;;;6.40;89.50;;;;;;5092545;28;20021;-49
2022/10/12 00:41:31;;;;;;;15.93;7.22;;;6.30;89.50;;;;;;5093672;28;20383;-48
2022/10/12 00:43:57;;;;;;;14.52;7.03;;;6.30;89.60;;;;;;5093660;28;20081;-49
2022/10/12 00:46:39;;;;;;;15.52;6.65;;;6.40;89.70;;;;;;5093478;28;20357;-48
2022/10/12 00:49:15;;;;;;;17.67;6.97;;;6.40;89.70;;;;;;5093505;28;20101;-48
2022/10/12 00:51:44;;;;;;;26.42;7.82;;;6.40;89.40;;;;;;5093561;28;20341;-39
2022/10/12 00:54:15;;;;;;;22.00;7.57;;;6.30;89.40;;;;;;5093548;28;20024;-52
2022/10/12 00:56:43;;;;;;;21.13;9.23;;;6.30;89.50;;;;;;5092351;28;20103;-50
2022/10/12 00:59:15;;;;;;;19.95;8.05;;;6.30;89.70;;;;;;5093413;28;20103;-51
2022/10/12 01:01:41;;;;;;;23.75;6.47;;;6.30;89.80;;;;;;5093450;28;20111;-48
2022/10/12 01:04:07;;;;;;;18.02;8.05;;;6.30;89.90;;;;;;5092982;28;20095;-47
2022/10/12 01:06:33;;;;;;;19.33;8.18;;;6.30;89.90;;;;;;5093099;28;20028;-48
2022/10/12 01:09:00;;;;;;;15.80;7.13;;;6.20;89.90;;;;;;5091555;28;20042;-49
2022/10/12 01:11:26;;;;;;;9.52;6.10;;;6.20;89.90;;;;;;5091537;28;20024;-49
2022/10/12 01:13:51;;;;;;;16.45;7.22;;;6.20;89.90;;;;;;5092954;28;20069;-50
2022/10/12 01:16:35;;;;;;;14.77;7.32;;;6.20;89.90;;;;;;5092781;28;20032;-48
2022/10/12 01:19:26;;;;;;;11.43;6.38;;;6.20;89.90;;;;;;5092819;28;20029;-48
2022/10/12 01:22:04;;;;;;;16.00;7.40;;;6.20;90.00;;;;;;5092830;28;20379;-48
2022/10/12 01:24:36;;;;;;;20.92;7.47;;;6.20;90.00;;;;;;5093072;28;20059;-50
2022/10/12 01:27:28;;;;;;;22.42;7.88;;;6.20;90.10;;;;;;5094924;28;20107;-47
2022/10/12 01:30:11;;;;;;;13.40;7.75;;;6.20;90.10;;;;;;5080467;28;20524;-48
2022/10/12 01:33:04;;;;;;;17.85;8.43;;;6.20;90.20;;;;;;5096660;28;20028;-48
2022/10/12 01:35:44;;;;;;;9.93;6.57;;;6.20;90.20;;;;;;5096913;28;20030;-48
2022/10/12 01:38:15;;;;;;;12.88;7.80;;;6.20;90.30;;;;;;5096696;28;20031;-50
2022/10/12 01:40:56;;;;;;;27.98;8.68;;;6.20;90.40;;;;;;5096685;28;20024;-50
2022/10/12 01:43:22;;;;;;;;;;;6.10;90.40;;;;;;5097156;28;20024;-47
2022/10/12 01:45:48;;;;;;;15.02;8.63;;;6.10;90.40;;;;;;5095257;28;20336;-56
2022/10/12 01:48:15;;;;;;;22.48;8.15;;;6.10;90.50;;;;;;5096803;28;20024;-50
2022/10/12 01:50:51;;;;;;;12.30;7.53;;;6.10;90.40;;;;;;5096553;28;20020;-50
2022/10/12 01:53:33;;;;;;;20.20;9.45;;;6.10;90.60;;;;;;5095246;28;20073;-50
2022/10/12 01:56:17;;;;;;;20.60;9.43;;;6.10;90.60;;;;;;5096562;28;20028;-49
2022/10/12 01:59:01;;;;;;;19.80;7.55;;;6.10;90.70;;;;;;5096627;28;20102;-47
2022/10/12 02:01:46;;;;;;;17.17;8.18;;;6.20;90.70;;;;;;5096210;28;20028;-49
2022/10/12 02:04:20;;;;;;;20.60;8.95;;;6.00;90.30;;;;;;5096234;28;20051;-48
2022/10/12 02:06:58;;;;;;;19.42;8.50;;;6.00;90.50;;;;;;5096569;28;20027;-49
2022/10/12 02:09:27;;;;;;;16.23;7.43;;;5.90;90.60;;;;;;5096659;28;20028;-49
2022/10/12 02:11:56;;;;;;;18.15;8.35;;;5.90;90.70;;;;;;5096257;28;20031;-50
2022/10/12 02:14:28;;;;;;;14.45;7.53;;;5.90;90.70;;;;;;5096089;28;20016;-50
2022/10/12 02:17:03;;;;;;;24.40;8.75;;;6.00;90.80;;;;;;5096286;28;20031;-48
2022/10/12 02:19:34;;;;;;;17.52;9.25;;;5.90;90.90;;;;;;5096248;28;20466;-48
2022/10/12 02:22:03;;;;;;;15.20;8.02;;;5.90;90.90;;;;;;5096251;28;20034;-49
2022/10/12 02:24:31;;;;;;;14.15;7.00;;;6.00;90.90;;;;;;5095773;28;20031;-50
2022/10/12 02:26:59;;;;;;;17.45;7.10;;;5.90;90.90;;;;;;5096090;28;20024;-48
2022/10/12 02:29:31;;;;;;;19.27;8.32;;;5.90;91.00;;;;;;5094553;28;20106;-47
2022/10/12 02:32:11;;;;;;;15.82;7.80;;;5.90;91.00;;;;;;5095799;28;20026;-48
2022/10/12 02:34:44;;;;;;;23.52;8.27;;;5.90;91.00;;;;;;5095805;28;20024;-48
2022/10/12 02:37:28;;;;;;;17.30;7.18;;;5.90;91.10;;;;;;5093881;28;20028;-48
2022/10/12 02:40:00;;;;;;;15.93;7.57;;;5.80;91.00;;;;;;5095826;28;20443;-49
2022/10/12 02:42:30;;;;;;;13.85;7.97;;;5.80;90.90;;;;;;5095596;28;20059;-48
2022/10/12 02:44:58;;;;;;;13.15;7.70;;;5.80;91.00;;;;;;5095756;28;20024;-49
2022/10/12 02:47:27;;;;;;;19.50;7.75;;;5.80;91.10;;;;;;5095981;28;20016;-49
2022/10/12 02:49:54;;;;;;;17.88;7.68;;;5.80;91.00;;;;;;5095478;28;20024;-48
2022/10/12 02:52:20;;;;;;;12.63;7.65;;;5.70;91.00;;;;;;5095450;28;20030;-47
2022/10/12 02:54:46;;;;;;;16.25;8.27;;;5.80;91.10;;;;;;5095568;28;20206;-48
2022/10/12 02:57:11;;;;;;;24.95;9.13;;;5.70;91.10;;;;;;5095546;28;20020;-47
2022/10/12 02:59:37;;;;;;;15.88;7.47;;;5.70;91.20;;;;;;5095144;28;20028;-54
2022/10/12 03:02:02;;;;;;;14.98;8.35;;;5.60;91.20;;;;;;5095338;28;20099;-47
2022/10/12 03:04:28;;;;;;;23.17;8.65;;;5.60;91.20;;;;;;5094929;28;20048;-48
2022/10/12 03:06:54;;;;;;;27.15;7.80;;;5.60;91.30;;;;;;5095327;28;20023;-47
2022/10/12 03:09:19;;;;;;;21.45;8.43;;;5.60;91.30;;;;;;5095140;28;20021;-50
2022/10/12 03:11:45;;;;;;;17.73;7.90;;;5.60;91.30;;;;;;5095318;28;20294;-50
2022/10/12 03:14:12;;;;;;;25.77;7.75;;;5.60;91.30;;;;;;5094952;28;20027;-49
2022/10/12 03:16:37;;;;;;;12.80;8.20;;;5.60;91.30;;;;;;5095132;28;20020;-48
2022/10/12 03:19:03;;;;;;;18.10;8.15;;;5.60;91.40;;;;;;5094941;28;20081;-49
2022/10/12 03:21:29;;;;;;;17.67;8.65;;;5.60;91.30;;;;;;5095082;28;20103;-48
2022/10/12 03:23:54;;;;;;;16.60;7.55;;;5.60;91.30;;;;;;5094889;28;20024;-48
2022/10/12 03:26:20;;;;;;;15.95;8.30;;;5.60;91.30;;;;;;5094849;28;20408;-49
2022/10/12 03:28:45;;;;;;;16.88;7.72;;;5.60;91.40;;;;;;5094808;28;20031;-51
2022/10/12 03:31:11;;;;;;;15.63;7.20;;;5.60;91.40;;;;;;5094732;28;20020;-47
2022/10/12 03:33:37;;;;;;;16.23;9.30;;;5.50;91.40;;;;;;5094634;28;20043;-49
2022/10/12 03:36:03;;;;;;;17.35;8.68;;;5.50;91.40;;;;;;5094552;28;20035;-49
2022/10/12 03:38:28;;;;;;;14.45;7.47;;;5.50;91.40;;;;;;5094733;28;20047;-48
2022/10/12 03:40:54;;;;;;;16.10;8.00;;;5.60;91.50;;;;;;5094375;28;20027;-48
2022/10/12 03:43:20;;;;;;;16.17;7.90;;;5.50;91.40;;;;;;5094673;28;20115;-48
2022/10/12 03:45:45;;;;;;;18.65;8.25;;;5.50;91.50;;;;;;5094685;28;20027;-50
2022/10/12 03:48:11;;;;;;;21.45;8.77;;;5.50;91.40;;;;;;5094510;28;20095;-47
2022/10/12 03:50:37;;;;;;;24.02;7.90;;;5.40;91.30;;;;;;5093815;28;20044;-47
2022/10/12 03:53:04;;;;;;;24.25;8.60;;;5.40;91.40;;;;;;5094572;28;20020;-48
2022/10/12 03:55:30;;;;;;;20.13;8.15;;;5.40;91.40;;;;;;5094410;28;20540;-49
2022/10/12 03:57:56;;;;;;;13.63;7.50;;;5.40;91.50;;;;;;5094834;28;20028;-50
2022/10/12 04:00:22;;;;;;;18.65;7.32;;;5.40;91.40;;;;;;5094700;28;20031;-48
2022/10/12 04:02:47;;;;;;;15.52;8.35;;;5.50;91.50;;;;;;5094349;28;20030;-50
2022/10/12 04:05:13;;;;;;;14.32;7.90;;;5.40;91.40;;;;;;5094050;28;20051;-48
2022/10/12 04:07:38;;;;;;;19.55;8.23;;;5.40;91.40;;;;;;5094416;28;20024;-49
2022/10/12 04:10:05;;;;;;;15.43;8.13;;;5.40;91.40;;;;;;5094247;28;20100;-49
2022/10/12 04:12:31;;;;;;;16.38;7.80;;;5.40;91.40;;;;;;5094299;28;20097;-49
2022/10/12 04:14:56;;;;;;;17.70;8.30;;;5.50;91.40;;;;;;5094069;28;20515;-48
2022/10/12 04:17:22;;;;;;;18.55;7.57;;;5.60;91.40;;;;;;5094165;28;20107;-47
2022/10/12 04:19:47;;;;;;;15.48;7.35;;;5.70;91.10;;;;;;5093799;28;20032;-48
2022/10/12 04:22:13;;;;;;;15.45;8.55;;;5.70;90.90;;;;;;5093864;28;20020;-48
2022/10/12 04:24:39;;;;;;;18.33;8.55;;;5.60;90.90;;;;;;5093685;28;20530;-48
2022/10/12 04:27:04;;;;;;;19.98;7.82;;;5.60;90.80;;;;;;5093685;28;20024;-48
2022/10/12 04:29:30;;;;;;;13.88;7.18;;;5.60;90.70;;;;;;5093632;28;20020;-46
2022/10/12 04:31:56;;;;;;;18.88;7.38;;;5.60;90.70;;;;;;5093532;28;20468;-47
2022/10/12 04:34:21;;;;;;;26.13;8.20;;;5.50;90.70;;;;;;5092238;28;20476;-48
2022/10/12 04:36:47;;;;;;;17.55;7.93;;;5.60;90.70;;;;;;5093567;28;20463;-48
2022/10/12 04:39:12;;;;;;;14.40;7.38;;;5.60;90.80;;;;;;5093882;28;20073;-48
2022/10/12 04:41:38;;;;;;;15.90;8.40;;;5.60;90.70;;;;;;5093503;28;20032;-48
2022/10/12 04:44:05;;;;;;;11.60;7.25;;;5.70;90.60;;;;;;5093646;28;20061;-48
2022/10/12 04:46:31;;;;;;;18.65;7.90;;;5.60;90.40;;;;;;5093384;28;20036;-50
2022/10/12 04:48:57;;;;;;;17.00;8.05;;;5.60;90.40;;;;;;5093447;28;20112;-49
2022/10/12 04:51:23;;;;;;;18.55;7.43;;;5.60;90.40;;;;;;5093643;28;20058;-48
2022/10/12 04:53:49;;;;;;;16.02;7.68;;;5.60;90.50;;;;;;5093334;28;20024;-50
2022/10/12 04:56:15;;;;;;;15.73;7.95;;;5.60;90.40;;;;;;5093943;28;20376;-48
2022/10/12 04:58:40;;;;;;;19.73;9.48;;;5.60;90.40;;;;;;5093219;28;20361;-48
2022/10/12 05:01:06;;;;;;;18.33;9.23;;;5.70;90.30;;;;;;5093298;28;20070;-48
2022/10/12 05:03:32;;;;;;;16.58;7.30;;;5.60;90.30;;;;;;5093499;28;20028;-49
2022/10/12 05:05:57;;;;;;;23.52;8.85;;;5.60;90.40;;;;;;5093078;28;20222;-47
2022/10/12 05:08:23;;;;;;;16.95;7.20;;;5.60;90.30;;;;;;5093128;28;20392;-52
2022/10/12 05:10:49;;;;;;;22.10;8.35;;;5.60;90.40;;;;;;5093278;28;20028;-48
2022/10/12 05:13:14;;;;;;;20.05;8.30;;;5.60;90.40;;;;;;5091877;28;20055;-50
2022/10/12 05:15:41;;;;;;;19.42;8.63;;;5.60;90.40;;;;;;5093732;28;20024;-49
2022/10/12 05:18:07;;;;;;;16.63;7.80;;;5.60;90.40;;;;;;5093264;28;20081;-49
2022/10/12 05:20:33;;;;;;;21.88;8.63;;;5.60;90.30;;;;;;5091745;28;20028;-48
2022/10/12 05:22:58;;;;;;;16.42;9.05;;;5.60;90.30;;;;;;5093387;28;20028;-47
2022/10/12 05:25:24;;;;;;;16.23;7.65;;;5.60;90.30;;;;;;5093256;28;20048;-48
2022/10/12 05:27:50;;;;;;;16.48;8.63;;;5.60;90.30;;;;;;5092956;28;20031;-48
2022/10/12 05:30:16;;;;;;;21.17;8.65;;;5.60;90.30;;;;;;5092853;28;20164;-48
2022/10/12 05:32:43;;;;;;;17.35;7.78;;;5.50;90.50;;;;;;5093249;28;20483;-49
2022/10/12 05:35:09;;;;;;;18.08;8.40;;;5.50;90.30;;;;;;5092862;28;20035;-47
2022/10/12 17:03:15;;;;;;;11.73;4.97;;;13.40;71.30;;;;;;5028375;28;20495;-50
2022/10/12 17:05:41;;;;;;;13.27;4.60;;;13.30;72.20;;;;;;5009731;28;20034;-51
2022/10/12 17:08:08;;;;;;;9.13;4.43;;;13.30;72.60;;;;;;5009930;28;20029;-50
2022/10/12 17:10:40;;;;;;;16.20;4.88;;;13.10;73.40;;;;;;5027759;28;20078;-49
2022/10/12 17:13:06;;;;;;;12.70;6.45;;;13.10;74.00;;;;;;5028257;28;20034;-51
2022/10/12 17:15:31;;;;;;;13.02;6.47;;;13.00;74.60;;;;;;5027716;28;20036;-52
2022/10/12 17:17:58;;;;;;;8.57;4.97;;;12.90;74.70;;;;;;5027716;28;20029;-50
2022/10/12 17:20:24;;;;;;;15.02;6.38;;;12.80;75.00;;;;;;5027921;28;20030;-50
2022/10/12 17:22:49;;;;;;;18.50;5.20;;;12.70;75.30;;;;;;5027711;28;20029;-48
2022/10/12 17:25:15;;;;;;;12.90;5.75;;;12.70;75.80;;;;;;5027700;28;20045;-50
2022/10/12 17:27:41;;;;;;;22.73;5.07;;;12.60;76.30;;;;;;5027620;28;20025;-50
2022/10/12 17:30:07;;;;;;;11.73;5.78;;;12.60;76.50;;;;;;5027749;28;20037;-49
2022/10/12 17:32:36;;;;;;;12.55;4.45;;;12.50;76.80;;;;;;5027483;28;20054;-50
2022/10/12 17:35:03;;;;;;;14.25;4.53;;;12.50;76.90;;;;;;5027923;28;20026;-49
2022/10/12 17:37:28;;;;;;;15.02;4.32;;;12.50;77.20;;;;;;5009106;28;20508;-50
2022/10/12 17:39:54;;;;;;;10.32;4.63;;;12.40;77.30;;;;;;5027284;28;20022;-51
2022/10/12 17:42:21;;;;;;;13.68;4.60;;;12.30;77.50;;;;;;5027581;28;20029;-49
2022/10/12 17:44:47;;;;;;;10.85;5.13;;;12.30;77.90;;;;;;5027787;28;20028;-41
2022/10/12 17:47:13;;;;;;;12.48;5.45;;;12.30;78.40;;;;;;5027188;28;20022;-39
2022/10/12 17:49:38;;;;;;;15.25;6.93;;;12.20;78.90;;;;;;5027143;28;20485;-40
2022/10/12 17:52:04;;;;;;;23.08;8.20;;;12.20;78.90;;;;;;5027574;28;20033;-40
2022/10/12 17:54:31;;;;;;;14.48;7.93;;;12.20;79.30;;;;;;5026866;28;20423;-42
2022/10/12 17:56:57;;;;;;;17.20;7.13;;;12.10;79.60;;;;;;5025489;28;20365;-40
2022/10/12 17:59:24;;;;;;;10.77;5.75;;;12.10;79.70;;;;;;5025457;28;20029;-40
2022/10/12 18:01:51;;;;;;;16.23;6.50;;;12.10;79.80;;;;;;5026815;28;20050;-40
2022/10/12 18:04:17;;;;;;;15.05;6.38;;;12.10;79.70;;;;;;5026642;28;20099;-42
2022/10/12 18:06:44;;;;;;;16.33;7.55;;;12.00;79.80;;;;;;5026585;28;20481;-40
2022/10/12 18:09:10;;;;;;;15.93;6.95;;;12.00;80.00;;;;;;5026841;28;20389;-39
2022/10/12 18:11:38;;;;;;;22.73;7.55;;;12.00;80.20;;;;;;5026602;28;20534;-40
2022/10/12 18:14:04;;;;;;;18.42;8.63;;;12.00;80.50;;;;;;5016885;28;20048;-40
2022/10/12 18:16:32;;;;;;;22.65;9.52;;;11.90;80.80;;;;;;5013445;28;20037;-40
2022/10/12 18:19:00;;;;;;;25.75;12.30;;;11.90;80.80;;;;;;5012841;28;20388;-40
2022/10/12 18:21:28;;;;;;;18.50;8.82;;;11.90;81.00;;;;;;5012502;28;20088;-40
2022/10/12 18:24:00;;;;;;;25.17;13.57;;;11.80;80.90;;;;;;5013233;28;20036;-40
2022/10/12 18:26:27;;;;;;;28.98;13.30;;;11.70;81.40;;;;;;5011356;28;20358;-40
2022/10/12 18:28:54;;;;;;;29.83;16.38;;;11.60;81.80;;;;;;5012370;28;20026;-40
2022/10/12 18:31:25;;;;;;;28.88;14.38;;;11.50;82.10;;;;;;5012848;28;20338;-41
2022/10/12 18:33:52;;;;;;;30.60;16.52;;;11.40;82.60;;;;;;5012652;28;20370;-39
2022/10/12 18:36:19;;;;;;;23.15;11.40;;;11.30;82.80;;;;;;5012465;28;20061;-39
2022/10/12 18:38:45;;;;;;;22.38;11.10;;;11.20;83.00;;;;;;4995095;28;20033;-39
2022/10/12 18:41:16;;;;;;;24.83;12.65;;;11.10;83.40;;;;;;5012817;28;20338;-40
2022/10/12 18:43:42;;;;;;;27.60;13.18;;;11.10;83.80;;;;;;4996217;28;20428;-40
2022/10/12 18:46:10;;;;;;;22.70;11.10;;;10.90;84.10;;;;;;5012980;28;20109;-40
2022/10/12 18:48:37;;;;;;;17.80;8.93;;;10.90;84.40;;;;;;5013935;28;20057;-40
2022/10/12 18:51:17;;;;;;;17.67;8.75;;;10.80;84.50;;;;;;5011513;28;20090;-39
2022/10/12 18:53:42;;;;;;;26.95;14.50;;;10.80;84.70;;;;;;5011714;28;20079;-39
2022/10/12 18:56:09;;;;;;;25.27;13.73;;;10.70;85.00;;;;;;5010872;28;20083;-39
2022/10/12 18:58:38;;;;;;;30.88;16.63;;;10.80;85.40;;;;;;5011071;28;20577;-39
2022/10/12 19:01:18;;;;;;;34.85;17.27;;;10.70;85.60;;;;;;5011167;28;20018;-41
2022/10/12 19:03:47;;;;;;;30.13;14.77;;;10.80;85.70;;;;;;5011317;28;20033;-40
2022/10/12 19:06:16;;;;;;;32.28;16.13;;;10.80;85.80;;;;;;5011174;28;20033;-39
2022/10/12 19:08:42;;;;;;;28.67;14.90;;;10.80;85.90;;;;;;4994406;28;20022;-40
2022/10/12 19:11:09;;;;;;;30.95;16.55;;;10.80;85.50;;;;;;5013262;28;20018;-51
2022/10/12 19:13:36;;;;;;;36.58;18.05;;;10.80;85.70;;;;;;5010592;28;20026;-48
2022/10/12 19:16:13;;;;;;;32.55;16.17;;;10.80;85.30;;;;;;5012207;28;20018;-51
2022/10/12 19:18:40;;;;;;;31.52;15.60;;;10.80;85.40;;;;;;5011139;28;20041;-50
2022/10/12 19:21:12;;;;;;;27.70;15.75;;;10.80;85.60;;;;;;5011999;28;20026;-50
2022/10/12 19:23:38;;;;;;;27.52;15.60;;;10.80;85.70;;;;;;5011997;28;20101;-49
2022/10/12 19:26:06;;;;;;;31.13;15.98;;;10.70;85.80;;;;;;5010719;28;20034;-50
2022/10/12 19:28:32;;;;;;;30.75;16.38;;;10.70;86.10;;;;;;5012119;28;20028;-49
2022/10/12 19:30:59;;;;;;;31.95;18.05;;;10.60;86.00;;;;;;5012765;28;20026;-50
2022/10/12 19:33:26;;;;;;;25.10;16.20;;;10.50;86.20;;;;;;5012034;28;20026;-50
2022/10/12 19:35:52;;;;;;;43.33;17.17;;;10.40;86.30;;;;;;5011711;28;20030;-49
2022/10/12 19:38:19;;;;;;;31.33;17.92;;;10.30;86.60;;;;;;5012141;28;20033;-50
2022/10/12 19:40:45;;;;;;;29.25;15.57;;;10.30;86.90;;;;;;5012011;28;20037;-48
2022/10/12 19:43:11;;;;;;;37.28;18.17;;;10.20;87.00;;;;;;5011768;28;20022;-50
2022/10/12 19:45:41;;;;;;;31.60;17.73;;;10.20;87.20;;;;;;5011958;28;20489;-49
2022/10/12 19:48:07;;;;;;;27.38;17.58;;;10.10;87.30;;;;;;5012078;28;20026;-49
2022/10/12 19:50:34;;;;;;;28.15;17.65;;;10.00;87.50;;;;;;5010519;28;20033;-50
2022/10/12 19:53:00;;;;;;;26.75;16.85;;;10.00;87.60;;;;;;5011771;28;20038;-49
2022/10/12 19:55:26;;;;;;;39.35;19.30;;;10.00;87.80;;;;;;5011851;28;20108;-50
2022/10/12 19:57:51;;;;;;;45.85;21.17;;;9.90;87.90;;;;;;5011550;28;20030;-49
2022/10/12 20:00:17;;;;;;;39.03;19.60;;;10.00;88.00;;;;;;5011594;28;20022;-50
2022/10/12 20:02:43;;;;;;;37.75;17.73;;;10.00;87.90;;;;;;5011210;28;20042;-50
2022/10/12 20:05:10;;;;;;;31.50;17.13;;;9.90;87.70;;;;;;5011229;28;20030;-52
2022/10/12 20:07:35;;;;;;;32.03;17.13;;;9.80;87.90;;;;;;5011407;28;20037;-51
2022/10/12 20:10:02;;;;;;;26.83;16.65;;;9.80;88.10;;;;;;5012628;28;20030;-48
2022/10/12 20:12:28;;;;;;;27.77;16.67;;;9.70;88.10;;;;;;5014360;28;20022;-49
2022/10/12 20:14:54;;;;;;;30.92;16.83;;;9.70;88.30;;;;;;5013226;28;20026;-41
2022/10/12 20:17:19;;;;;;;27.98;15.80;;;9.70;88.40;;;;;;5013187;28;20026;-39
2022/10/12 20:19:45;;;;;;;30.05;16.48;;;9.70;88.40;;;;;;5011308;28;20109;-39
2022/10/12 20:22:10;;;;;;;26.55;15.45;;;9.60;88.30;;;;;;5011291;28;20030;-39
2022/10/12 20:24:36;;;;;;;26.55;15.45;;;9.60;88.40;;;;;;5011110;28;20056;-40
2022/10/12 20:27:02;;;;;;;25.60;15.55;;;9.60;88.40;;;;;;5010877;28;20026;-39
2022/10/12 20:29:27;;;;;;;26.63;15.05;;;9.60;88.40;;;;;;5011192;28;20383;-39
2022/10/12 20:31:53;;;;;;;27.83;15.13;;;9.60;88.40;;;;;;5011052;28;20033;-39
2022/10/12 20:34:18;;;;;;;33.80;15.88;;;9.60;88.40;;;;;;5011174;28;20033;-39
2022/10/12 20:36:44;;;;;;;30.40;15.43;;;9.60;88.40;;;;;;5010614;28;20030;-39
2022/10/12 20:39:10;;;;;;;30.70;13.88;;;9.60;88.40;;;;;;5011121;28;20021;-40
2022/10/12 20:41:35;;;;;;;27.52;14.82;;;9.50;88.40;;;;;;5013422;28;20064;-38
2022/10/12 20:44:01;;;;;;;26.98;13.98;;;9.50;88.40;;;;;;5012540;28;20106;-40
2022/10/12 20:46:28;;;;;;;27.98;13.63;;;9.40;88.50;;;;;;5011560;28;20041;-39
2022/10/12 20:48:56;;;;;;;22.48;12.90;;;9.40;88.50;;;;;;5010913;28;20029;-39
2022/10/12 20:51:27;;;;;;;25.00;13.75;;;9.30;88.60;;;;;;5011643;28;20090;-39
2022/10/12 20:53:54;;;;;;;30.40;13.48;;;9.30;88.60;;;;;;5010581;28;20026;-39
2022/10/12 20:56:20;;;;;;;26.95;14.63;;;9.30;88.70;;;;;;5009047;28;20109;-38
2022/10/12 20:58:46;;;;;;;20.88;13.02;;;9.30;88.80;;;;;;5010843;28;20124;-39
2022/10/12 21:01:14;;;;;;;22.77;11.75;;;9.20;88.90;;;;;;5010319;28;20038;-39
2022/10/12 21:03:41;;;;;;;21.52;12.63;;;9.20;88.90;;;;;;5010618;28;20094;-39
2022/10/12 21:06:16;;;;;;;30.17;13.55;;;9.20;89.00;;;;;;5010923;28;20074;-38
2022/10/12 21:08:42;;;;;;;26.50;12.75;;;9.20;89.00;;;;;;5011275;28;20022;-40
2022/10/12 21:11:09;;;;;;;29.27;14.32;;;9.10;89.10;;;;;;5011903;28;20403;-42
2022/10/12 21:13:39;;;;;;;26.67;12.98;;;9.00;89.20;;;;;;5013808;28;20022;-39
2022/10/12 21:16:06;;;;;;;26.70;13.73;;;9.00;89.20;;;;;;5012240;28;20496;-40
2022/10/12 21:18:31;;;;;;;26.33;15.45;;;9.00;89.30;;;;;;5011765;28;20029;-40
2022/10/12 21:21:03;;;;;;;35.60;16.15;;;8.90;89.20;;;;;;5011030;28;20018;-41
2022/10/12 21:23:29;;;;;;;41.08;16.10;;;8.80;89.30;;;;;;5012190;28;20079;-40
2022/10/12 21:25:55;;;;;;;29.70;16.13;;;8.80;89.50;;;;;;5011666;28;20022;-40
2022/10/12 21:28:21;;;;;;;27.30;13.75;;;8.80;89.60;;;;;;5011465;28;20450;-40
2022/10/12 21:30:49;;;;;;;25.45;14.63;;;8.80;89.60;;;;;;5011782;28;20041;-42
2022/10/12 21:33:16;;;;;;;29.20;14.02;;;8.80;89.70;;;;;;5011248;28;20118;-41
2022/10/12 21:35:42;;;;;;;28.23;13.25;;;8.80;89.80;;;;;;5012559;28;20094;-40
2022/10/12 21:38:08;;;;;;;22.60;14.85;;;8.70;89.80;;;;;;5012221;28;20030;-40
2022/10/12 21:40:34;;;;;;;22.75;12.85;;;8.70;89.70;;;;;;5011233;28;20370;-41
2022/10/12 21:43:00;;;;;;;24.52;12.40;;;8.60;89.70;;;;;;5011662;28;20029;-41
2022/10/12 21:45:25;;;;;;;23.60;12.77;;;8.60;89.90;;;;;;5009055;28;20507;-41
2022/10/12 21:47:51;;;;;;;22.88;12.88;;;8.50;89.70;;;;;;5010750;28;20037;-41
2022/10/12 21:50:17;;;;;;;23.50;12.65;;;8.50;89.80;;;;;;5014339;28;20022;-39
2022/10/12 21:52:43;;;;;;;31.48;13.82;;;8.50;89.80;;;;;;5012088;28;20033;-40
2022/10/12 21:55:08;;;;;;;19.65;11.65;;;8.50;89.90;;;;;;5013813;28;20359;-39
2022/10/12 21:57:34;;;;;;;24.70;12.23;;;8.50;90.00;;;;;;5013606;28;20029;-40
2022/10/12 22:00:00;;;;;;;30.20;13.55;;;8.50;90.00;;;;;;5013412;28;20029;-40
2022/10/12 22:02:25;;;;;;;32.45;14.10;;;8.50;90.00;;;;;;5013051;28;20058;-39
2022/10/12 22:04:51;;;;;;;24.45;11.02;;;8.50;90.00;;;;;;5013292;28;20018;-40
2022/10/12 22:07:17;;;;;;;19.05;12.77;;;8.50;90.10;;;;;;5012949;28;20053;-39
2022/10/12 22:09:42;;;;;;;27.52;12.73;;;8.50;90.10;;;;;;5013713;28;20483;-39
2022/10/12 22:12:08;;;;;;;21.13;12.57;;;8.50;90.00;;;;;;5013053;28;20078;-39
2022/10/12 22:14:34;;;;;;;25.40;12.93;;;8.50;90.00;;;;;;5013011;28;20086;-40
2022/10/12 22:16:59;;;;;;;26.23;12.13;;;8.50;90.00;;;;;;5012806;28;20034;-40
2022/10/12 22:19:25;;;;;;;22.70;13.00;;;8.50;90.00;;;;;;5013092;28;20042;-40
2022/10/12 22:21:51;;;;;;;20.13;12.25;;;8.60;90.10;;;;;;5012900;28;20114;-42
2022/10/12 22:24:18;;;;;;;24.52;13.50;;;8.50;90.00;;;;;;5013048;28;20381;-40
2022/10/12 22:26:44;;;;;;;18.20;11.32;;;8.60;90.00;;;;;;5012909;28;20050;-40
2022/10/12 22:29:10;;;;;;;23.25;11.93;;;8.60;89.90;;;;;;5012783;28;20018;-39
2022/10/12 22:31:38;;;;;;;18.38;10.93;;;8.60;89.90;;;;;;5012587;28;20018;-41
2022/10/12 22:34:04;;;;;;;19.13;11.65;;;8.60;89.80;;;;;;5012442;28;20026;-40
2022/10/12 22:36:30;;;;;;;22.15;11.10;;;8.60;89.80;;;;;;4994984;28;20541;-39
2022/10/12 22:38:56;;;;;;;20.48;11.43;;;8.60;89.80;;;;;;5012796;28;20489;-40
2022/10/12 22:41:23;;;;;;;22.10;11.55;;;8.60;89.70;;;;;;5012466;28;20022;-40
2022/10/12 22:43:50;;;;;;;20.50;11.80;;;8.60;89.70;;;;;;5012483;28;20478;-40
2022/10/12 22:46:17;;;;;;;19.75;12.30;;;8.70;89.70;;;;;;5012491;28;20121;-40
2022/10/12 22:48:43;;;;;;;25.27;11.98;;;8.80;89.70;;;;;;5012373;28;20022;-40
2022/10/12 22:51:10;;;;;;;20.05;11.63;;;8.80;89.70;;;;;;5011078;28;20428;-39
2022/10/12 22:53:36;;;;;;;22.25;11.75;;;8.90;89.60;;;;;;5012427;28;20493;-48
2022/10/12 22:56:05;;;;;;;24.90;12.20;;;9.00;89.30;;;;;;5012403;28;20022;-49
2022/10/12 22:58:32;;;;;;;22.25;11.63;;;9.00;89.20;;;;;;5011052;28;20022;-48
2022/10/12 23:01:02;;;;;;;24.40;11.50;;;9.00;89.10;;;;;;5012125;28;20030;-51
2022/10/12 23:03:30;;;;;;;;;;;9.00;89.10;;;;;;5011783;28;20355;-47
2022/10/12 23:05:55;;;;;;;21.05;11.40;;;9.10;89.00;;;;;;5012789;28;20348;-51
2022/10/12 23:08:21;;;;;;;24.13;12.40;;;9.10;89.00;;;;;;5012408;28;20018;-49
2022/10/12 23:10:46;;;;;;;22.85;12.57;;;9.10;88.90;;;;;;5012048;28;20030;-48
2022/10/12 23:13:12;;;;;;;21.48;10.65;;;9.20;88.80;;;;;;5012119;28;20026;-49
2022/10/12 23:15:38;;;;;;;17.98;11.52;;;9.20;88.70;;;;;;5012531;28;20026;-48
2022/10/12 23:18:03;;;;;;;24.08;12.15;;;9.20;88.70;;;;;;5012038;28;20034;-47
2022/10/12 23:20:29;;;;;;;17.73;10.52;;;9.20;88.60;;;;;;5012065;28;20506;-48
2022/10/12 23:22:55;;;;;;;20.38;10.07;;;9.20;88.70;;;;;;5010999;28;20040;-49
2022/10/12 23:25:20;;;;;;;29.75;13.52;;;9.20;88.80;;;;;;5012067;28;20048;-48
2022/10/12 23:27:46;;;;;;;22.00;11.50;;;9.30;88.60;;;;;;5012097;28;20458;-51
2022/10/12 23:30:11;;;;;;;20.73;11.70;;;9.30;88.60;;;;;;5010571;28;20022;-48
2022/10/12 23:32:37;;;;;;;24.40;11.18;;;9.30;88.70;;;;;;5011735;28;20497;-48
2022/10/12 23:35:03;;;;;;;19.58;11.00;;;9.30;88.80;;;;;;5011709;28;20030;-49
2022/10/12 23:37:28;;;;;;;27.50;10.80;;;9.40;88.80;;;;;;5010386;28;20450;-48
2022/10/12 23:39:54;;;;;;;23.02;11.60;;;9.70;89.00;;;;;;5011992;28;20370;-48
2022/10/12 23:42:20;;;;;;;24.17;11.50;;;9.90;89.10;;;;;;5011665;28;20034;-51
2022/10/12 23:44:45;;;;;;;20.13;11.18;;;10.00;88.70;;;;;;5011614;28;20030;-47
2022/10/12 23:47:11;;;;;;;22.33;10.70;;;9.80;88.40;;;;;;5012364;28;20420;-51
2022/10/12 23:49:37;;;;;;;24.80;11.45;;;9.80;88.60;;;;;;5011602;28;20083;-50
2022/10/12 23:52:02;;;;;;;24.42;13.02;;;9.80;88.90;;;;;;5011590;28;20109;-49
2022/10/12 23:54:28;;;;;;;16.20;10.32;;;9.90;88.80;;;;;;5011418;28;20034;-48
2022/10/12 23:56:54;;;;;;;22.40;10.80;;;10.00;89.00;;;;;;5011725;28;20372;-49
2022/10/12 23:59:19;;;;;;;21.90;11.25;;;10.00;88.80;;;;;;5012246;28;20034;-49
